sensor_id;sensor_type;location;lat;lon;timestamp;temperature;humidity
44767;DHT22;30487;48.716;9.272;2022-07-04T00:02:05;22.00;83.40
44767;DHT22;30487;48.716;9.272;2022-07-04T00:04:31;22.00;83.50
44767;DHT22;30487;48.716;9.272;2022-07-04T00:06:56;22.00;83.90
44767;DHT22;30487;48.716;9.272;2022-07-04T00:09:21;22.00;84.20
44767;DHT22;30487;48.716;9.272;2022-07-04T00:11:47;21.90;84.90
44767;DHT22;30487;48.716;9.272;2022-07-04T00:14:12;21.90;84.40
44767;DHT22;30487;48.716;9.272;2022-07-04T00:16:38;21.80;84.40
44767;DHT22;30487;48.716;9.272;2022-07-04T00:19:03;21.80;84.60
44767;DHT22;30487;48.716;9.272;2022-07-04T00:21:29;21.80;84.80
44767;DHT22;30487;48.716;9.272;2022-07-04T00:23:54;21.80;84.70
44767;DHT22;30487;48.716;9.272;2022-07-04T00:26:20;21.80;84.30
44767;DHT22;30487;48.716;9.272;2022-07-04T00:28:45;21.80;84.40
44767;DHT22;30487;48.716;9.272;2022-07-04T00:31:11;21.70;84.30
44767;DHT22;30487;48.716;9.272;2022-07-04T00:33:36;21.70;84.30
44767;DHT22;30487;48.716;9.272;2022-07-04T00:36:02;21.80;84.40
44767;DHT22;30487;48.716;9.272;2022-07-04T00:38:27;21.80;84.20
44767;DHT22;30487;48.716;9.272;2022-07-04T00:40:53;21.80;84.30
44767;DHT22;30487;48.716;9.272;2022-07-04T00:43:23;21.80;84.60
44767;DHT22;30487;48.716;9.272;2022-07-04T00:45:49;21.80;84.60
44767;DHT22;30487;48.716;9.272;2022-07-04T00:48:14;21.70;84.70
44767;DHT22;30487;48.716;9.272;2022-07-04T00:50:47;21.70;84.80
44767;DHT22;30487;48.716;9.272;2022-07-04T00:53:16;21.70;84.50
44767;DHT22;30487;48.716;9.272;2022-07-04T00:55:42;21.70;84.50
44767;DHT22;30487;48.716;9.272;2022-07-04T00:58:09;21.70;84.80
44767;DHT22;30487;48.716;9.272;2022-07-04T01:00:35;21.70;84.70
44767;DHT22;30487;48.716;9.272;2022-07-04T01:03:01;21.60;84.60
44767;DHT22;30487;48.716;9.272;2022-07-04T01:05:26;21.60;85.00
44767;DHT22;30487;48.716;9.272;2022-07-04T01:07:52;21.60;84.70
44767;DHT22;30487;48.716;9.272;2022-07-04T01:10:17;21.60;84.80
44767;DHT22;30487;48.716;9.272;2022-07-04T01:12:43;21.60;85.00
44767;DHT22;30487;48.716;9.272;2022-07-04T01:15:08;21.60;85.30
44767;DHT22;30487;48.716;9.272;2022-07-04T01:17:34;21.60;85.30
44767;DHT22;30487;48.716;9.272;2022-07-04T01:20:00;21.50;85.40
44767;DHT22;30487;48.716;9.272;2022-07-04T01:22:25;21.50;85.20
44767;DHT22;30487;48.716;9.272;2022-07-04T01:24:51;21.50;85.30
44767;DHT22;30487;48.716;9.272;2022-07-04T01:27:17;21.50;85.40
44767;DHT22;30487;48.716;9.272;2022-07-04T01:29:43;21.40;85.40
44767;DHT22;30487;48.716;9.272;2022-07-04T01:32:09;21.30;86.00
44767;DHT22;30487;48.716;9.272;2022-07-04T01:34:35;21.30;86.00
44767;DHT22;30487;48.716;9.272;2022-07-04T01:37:01;21.30;86.40
44767;DHT22;30487;48.716;9.272;2022-07-04T01:39:27;21.30;86.20
44767;DHT22;30487;48.716;9.272;2022-07-04T01:41:52;21.30;86.10
44767;DHT22;30487;48.716;9.272;2022-07-04T01:44:18;21.30;86.40
44767;DHT22;30487;48.716;9.272;2022-07-04T01:46:43;21.30;86.40
44767;DHT22;30487;48.716;9.272;2022-07-04T01:49:09;21.30;85.80
44767;DHT22;30487;48.716;9.272;2022-07-04T01:51:34;21.30;86.00
44767;DHT22;30487;48.716;9.272;2022-07-04T01:54:00;21.30;86.20
44767;DHT22;30487;48.716;9.272;2022-07-04T01:56:25;21.30;86.40
44767;DHT22;30487;48.716;9.272;2022-07-04T01:58:51;21.30;86.50
44767;DHT22;30487;48.716;9.272;2022-07-04T02:01:16;21.20;87.30
44767;DHT22;30487;48.716;9.272;2022-07-04T02:04:01;21.20;87.50
44767;DHT22;30487;48.716;9.272;2022-07-04T02:06:27;21.00;88.00
44767;DHT22;30487;48.716;9.272;2022-07-04T02:08:52;20.90;88.50
44767;DHT22;30487;48.716;9.272;2022-07-04T02:11:37;20.80;88.30
44767;DHT22;30487;48.716;9.272;2022-07-04T02:14:21;20.90;88.90
44767;DHT22;30487;48.716;9.272;2022-07-04T02:16:47;20.90;88.50
44767;DHT22;30487;48.716;9.272;2022-07-04T02:19:12;20.90;89.00
44767;DHT22;30487;48.716;9.272;2022-07-04T02:21:38;20.90;88.80
44767;DHT22;30487;48.716;9.272;2022-07-04T02:24:04;20.90;89.30
44767;DHT22;30487;48.716;9.272;2022-07-04T02:26:29;20.80;89.80
44767;DHT22;30487;48.716;9.272;2022-07-04T02:28:55;20.80;89.80
44767;DHT22;30487;48.716;9.272;2022-07-04T02:31:20;20.80;89.90
44767;DHT22;30487;48.716;9.272;2022-07-04T02:33:46;20.80;90.20
44767;DHT22;30487;48.716;9.272;2022-07-04T02:36:11;20.70;90.20
44767;DHT22;30487;48.716;9.272;2022-07-04T02:38:37;20.70;90.50
44767;DHT22;30487;48.716;9.272;2022-07-04T02:41:02;20.70;90.40
44767;DHT22;30487;48.716;9.272;2022-07-04T02:43:28;20.60;90.40
44767;DHT22;30487;48.716;9.272;2022-07-04T02:45:53;20.60;90.60
44767;DHT22;30487;48.716;9.272;2022-07-04T02:48:19;20.40;90.80
44767;DHT22;30487;48.716;9.272;2022-07-04T02:50:44;20.40;91.00
44767;DHT22;30487;48.716;9.272;2022-07-04T02:53:09;20.30;91.20
44767;DHT22;30487;48.716;9.272;2022-07-04T02:55:35;20.20;91.50
44767;DHT22;30487;48.716;9.272;2022-07-04T02:58:01;20.10;91.50
44767;DHT22;30487;48.716;9.272;2022-07-04T03:00:26;20.10;91.90
44767;DHT22;30487;48.716;9.272;2022-07-04T03:02:53;20.00;92.10
44767;DHT22;30487;48.716;9.272;2022-07-04T03:05:18;20.00;92.30
44767;DHT22;30487;48.716;9.272;2022-07-04T03:07:44;20.00;92.30
44767;DHT22;30487;48.716;9.272;2022-07-04T03:10:09;20.00;92.50
44767;DHT22;30487;48.716;9.272;2022-07-04T03:12:35;20.00;92.60
44767;DHT22;30487;48.716;9.272;2022-07-04T03:15:00;20.00;92.60
44767;DHT22;30487;48.716;9.272;2022-07-04T03:17:26;20.00;92.50
44767;DHT22;30487;48.716;9.272;2022-07-04T03:19:51;20.00;92.60
44767;DHT22;30487;48.716;9.272;2022-07-04T03:22:17;20.00;92.70
44767;DHT22;30487;48.716;9.272;2022-07-04T03:24:42;20.00;92.80
44767;DHT22;30487;48.716;9.272;2022-07-04T03:27:08;20.00;92.80
44767;DHT22;30487;48.716;9.272;2022-07-04T03:29:33;20.00;92.70
44767;DHT22;30487;48.716;9.272;2022-07-04T03:31:59;19.90;92.70
44767;DHT22;30487;48.716;9.272;2022-07-04T03:34:24;20.00;92.90
44767;DHT22;30487;48.716;9.272;2022-07-04T03:36:50;19.90;92.70
44767;DHT22;30487;48.716;9.272;2022-07-04T03:39:15;19.90;92.70
44767;DHT22;30487;48.716;9.272;2022-07-04T03:41:41;19.90;92.90
44767;DHT22;30487;48.716;9.272;2022-07-04T03:44:06;19.90;92.80
44767;DHT22;30487;48.716;9.272;2022-07-04T03:46:32;19.90;92.90
44767;DHT22;30487;48.716;9.272;2022-07-04T03:48:57;19.90;93.00
44767;DHT22;30487;48.716;9.272;2022-07-04T03:51:23;19.90;93.20
44767;DHT22;30487;48.716;9.272;2022-07-04T03:53:48;19.80;93.30
44767;DHT22;30487;48.716;9.272;2022-07-04T03:56:14;19.80;93.90
44767;DHT22;30487;48.716;9.272;2022-07-04T03:58:40;19.70;94.10
44767;DHT22;30487;48.716;9.272;2022-07-04T04:01:08;19.80;94.10
44767;DHT22;30487;48.716;9.272;2022-07-04T04:03:35;19.70;94.10
44767;DHT22;30487;48.716;9.272;2022-07-04T04:06:19;19.70;94.20
44767;DHT22;30487;48.716;9.272;2022-07-04T04:08:45;19.60;94.20
44767;DHT22;30487;48.716;9.272;2022-07-04T04:11:10;19.60;94.50
44767;DHT22;30487;48.716;9.272;2022-07-04T04:13:36;19.60;94.90
44767;DHT22;30487;48.716;9.272;2022-07-04T04:16:02;19.60;94.60
44767;DHT22;30487;48.716;9.272;2022-07-04T04:18:27;19.60;95.20
44767;DHT22;30487;48.716;9.272;2022-07-04T04:20:53;19.60;95.40
44767;DHT22;30487;48.716;9.272;2022-07-04T04:23:18;19.60;95.20
44767;DHT22;30487;48.716;9.272;2022-07-04T04:25:45;19.50;95.30
44767;DHT22;30487;48.716;9.272;2022-07-04T04:28:11;19.30;95.70
44767;DHT22;30487;48.716;9.272;2022-07-04T04:30:36;19.20;95.90
44767;DHT22;30487;48.716;9.272;2022-07-04T04:33:02;19.10;96.20
44767;DHT22;30487;48.716;9.272;2022-07-04T04:35:27;19.20;96.20
44767;DHT22;30487;48.716;9.272;2022-07-04T04:37:53;19.20;96.50
44767;DHT22;30487;48.716;9.272;2022-07-04T04:40:18;19.30;96.10
44767;DHT22;30487;48.716;9.272;2022-07-04T04:42:44;19.30;96.20
44767;DHT22;30487;48.716;9.272;2022-07-04T04:45:09;19.30;96.30
44767;DHT22;30487;48.716;9.272;2022-07-04T04:47:35;19.20;96.60
44767;DHT22;30487;48.716;9.272;2022-07-04T04:50:00;19.20;96.80
44767;DHT22;30487;48.716;9.272;2022-07-04T04:52:26;19.10;97.10
44767;DHT22;30487;48.716;9.272;2022-07-04T04:54:52;19.10;97.30
44767;DHT22;30487;48.716;9.272;2022-07-04T04:57:17;19.00;97.50
44767;DHT22;30487;48.716;9.272;2022-07-04T04:59:43;19.00;98.00
44767;DHT22;30487;48.716;9.272;2022-07-04T05:02:08;19.00;98.00
44767;DHT22;30487;48.716;9.272;2022-07-04T05:04:34;19.00;98.50
44767;DHT22;30487;48.716;9.272;2022-07-04T05:06:59;19.00;98.40
44767;DHT22;30487;48.716;9.272;2022-07-04T05:09:25;19.10;98.60
44767;DHT22;30487;48.716;9.272;2022-07-04T05:11:50;19.10;98.80
44767;DHT22;30487;48.716;9.272;2022-07-04T05:14:16;19.20;98.80
44767;DHT22;30487;48.716;9.272;2022-07-04T05:16:41;19.10;98.40
44767;DHT22;30487;48.716;9.272;2022-07-04T05:19:07;19.20;98.60
44767;DHT22;30487;48.716;9.272;2022-07-04T05:21:32;19.20;99.20
44767;DHT22;30487;48.716;9.272;2022-07-04T05:23:58;19.30;98.50
44767;DHT22;30487;48.716;9.272;2022-07-04T05:26:23;19.30;98.10
44767;DHT22;30487;48.716;9.272;2022-07-04T05:28:49;19.30;98.40
44767;DHT22;30487;48.716;9.272;2022-07-04T05:31:15;19.30;98.60
44767;DHT22;30487;48.716;9.272;2022-07-04T05:33:40;19.30;98.80
44767;DHT22;30487;48.716;9.272;2022-07-04T05:36:06;19.40;98.50
44767;DHT22;30487;48.716;9.272;2022-07-04T05:38:31;19.40;98.70
44767;DHT22;30487;48.716;9.272;2022-07-04T05:40:57;19.40;99.00
44767;DHT22;30487;48.716;9.272;2022-07-04T05:43:22;19.50;99.10
44767;DHT22;30487;48.716;9.272;2022-07-04T05:45:50;19.50;99.00
44767;DHT22;30487;48.716;9.272;2022-07-04T05:48:16;19.60;99.00
44767;DHT22;30487;48.716;9.272;2022-07-04T05:50:42;19.50;99.40
44767;DHT22;30487;48.716;9.272;2022-07-04T05:53:07;19.60;99.10
44767;DHT22;30487;48.716;9.272;2022-07-04T05:55:33;19.70;99.30
44767;DHT22;30487;48.716;9.272;2022-07-04T05:58:00;19.70;99.70
44767;DHT22;30487;48.716;9.272;2022-07-04T06:00:25;19.80;99.20
44767;DHT22;30487;48.716;9.272;2022-07-04T06:02:51;19.90;99.10
44767;DHT22;30487;48.716;9.272;2022-07-04T06:05:17;20.10;98.70
44767;DHT22;30487;48.716;9.272;2022-07-04T06:07:42;20.20;98.60
44767;DHT22;30487;48.716;9.272;2022-07-04T06:10:08;20.40;98.30
44767;DHT22;30487;48.716;9.272;2022-07-04T06:12:34;20.50;97.60
44767;DHT22;30487;48.716;9.272;2022-07-04T06:15:00;20.70;97.30
44767;DHT22;30487;48.716;9.272;2022-07-04T06:17:26;20.80;96.50
44767;DHT22;30487;48.716;9.272;2022-07-04T06:19:51;20.90;96.90
44767;DHT22;30487;48.716;9.272;2022-07-04T06:22:17;21.00;96.60
44767;DHT22;30487;48.716;9.272;2022-07-04T06:24:42;21.00;96.30
44767;DHT22;30487;48.716;9.272;2022-07-04T06:27:08;21.00;96.60
44767;DHT22;30487;48.716;9.272;2022-07-04T06:29:33;21.00;97.00
44767;DHT22;30487;48.716;9.272;2022-07-04T06:31:59;21.10;96.30
44767;DHT22;30487;48.716;9.272;2022-07-04T06:34:24;21.20;96.10
44767;DHT22;30487;48.716;9.272;2022-07-04T06:37:08;21.30;95.50
44767;DHT22;30487;48.716;9.272;2022-07-04T06:39:34;21.40;95.00
44767;DHT22;30487;48.716;9.272;2022-07-04T06:41:59;21.40;95.30
44767;DHT22;30487;48.716;9.272;2022-07-04T06:44:25;21.50;95.20
44767;DHT22;30487;48.716;9.272;2022-07-04T06:46:50;21.50;95.00
44767;DHT22;30487;48.716;9.272;2022-07-04T06:49:16;21.40;94.70
44767;DHT22;30487;48.716;9.272;2022-07-04T06:51:42;21.20;94.90
44767;DHT22;30487;48.716;9.272;2022-07-04T06:54:07;21.00;95.60
44767;DHT22;30487;48.716;9.272;2022-07-04T06:56:33;21.10;96.20
44767;DHT22;30487;48.716;9.272;2022-07-04T06:58:58;21.30;96.60
44767;DHT22;30487;48.716;9.272;2022-07-04T07:01:24;21.40;96.20
44767;DHT22;30487;48.716;9.272;2022-07-04T07:03:50;21.50;96.40
44767;DHT22;30487;48.716;9.272;2022-07-04T07:06:16;21.70;96.10
44767;DHT22;30487;48.716;9.272;2022-07-04T07:08:41;21.80;95.70
44767;DHT22;30487;48.716;9.272;2022-07-04T07:11:07;22.00;94.70
44767;DHT22;30487;48.716;9.272;2022-07-04T07:13:42;22.10;94.20
44767;DHT22;30487;48.716;9.272;2022-07-04T07:16:08;22.10;93.90
44767;DHT22;30487;48.716;9.272;2022-07-04T07:18:33;22.20;94.70
44767;DHT22;30487;48.716;9.272;2022-07-04T07:20:59;22.20;94.30
44767;DHT22;30487;48.716;9.272;2022-07-04T07:23:24;22.30;94.50
44767;DHT22;30487;48.716;9.272;2022-07-04T07:25:49;22.40;94.80
44767;DHT22;30487;48.716;9.272;2022-07-04T07:28:15;22.40;94.50
44767;DHT22;30487;48.716;9.272;2022-07-04T07:30:41;22.50;94.10
44767;DHT22;30487;48.716;9.272;2022-07-04T07:33:06;22.60;93.30
44767;DHT22;30487;48.716;9.272;2022-07-04T07:35:32;22.60;93.30
44767;DHT22;30487;48.716;9.272;2022-07-04T07:37:57;22.60;93.50
44767;DHT22;30487;48.716;9.272;2022-07-04T07:40:23;22.60;93.50
44767;DHT22;30487;48.716;9.272;2022-07-04T07:42:48;22.60;93.80
44767;DHT22;30487;48.716;9.272;2022-07-04T07:45:14;22.50;93.70
44767;DHT22;30487;48.716;9.272;2022-07-04T07:47:39;22.50;94.50
44767;DHT22;30487;48.716;9.272;2022-07-04T07:50:05;22.60;94.60
44767;DHT22;30487;48.716;9.272;2022-07-04T07:52:31;22.60;94.20
44767;DHT22;30487;48.716;9.272;2022-07-04T07:54:56;22.60;93.50
44767;DHT22;30487;48.716;9.272;2022-07-04T07:57:22;22.70;93.80
44767;DHT22;30487;48.716;9.272;2022-07-04T07:59:47;22.80;94.00
44767;DHT22;30487;48.716;9.272;2022-07-04T08:02:13;22.90;93.50
44767;DHT22;30487;48.716;9.272;2022-07-04T08:04:38;23.00;93.00
44767;DHT22;30487;48.716;9.272;2022-07-04T08:07:09;23.10;92.80
44767;DHT22;30487;48.716;9.272;2022-07-04T08:09:35;23.20;92.50
44767;DHT22;30487;48.716;9.272;2022-07-04T08:12:02;23.30;92.90
44767;DHT22;30487;48.716;9.272;2022-07-04T08:14:28;23.40;91.70
44767;DHT22;30487;48.716;9.272;2022-07-04T08:16:54;23.50;92.50
44767;DHT22;30487;48.716;9.272;2022-07-04T08:19:22;23.50;91.90
44767;DHT22;30487;48.716;9.272;2022-07-04T08:21:49;23.50;91.60
44767;DHT22;30487;48.716;9.272;2022-07-04T08:24:15;23.50;92.10
44767;DHT22;30487;48.716;9.272;2022-07-04T08:26:41;23.30;92.70
44767;DHT22;30487;48.716;9.272;2022-07-04T08:29:07;23.30;92.60
44767;DHT22;30487;48.716;9.272;2022-07-04T08:31:32;23.30;93.00
44767;DHT22;30487;48.716;9.272;2022-07-04T08:33:57;23.50;92.20
44767;DHT22;30487;48.716;9.272;2022-07-04T08:36:23;23.60;91.60
44767;DHT22;30487;48.716;9.272;2022-07-04T08:38:48;23.60;92.30
44767;DHT22;30487;48.716;9.272;2022-07-04T08:41:17;23.60;92.00
44767;DHT22;30487;48.716;9.272;2022-07-04T08:43:44;23.60;91.40
44767;DHT22;30487;48.716;9.272;2022-07-04T08:46:10;23.40;92.30
44767;DHT22;30487;48.716;9.272;2022-07-04T08:48:37;23.40;91.70
44767;DHT22;30487;48.716;9.272;2022-07-04T08:51:51;23.40;92.20
44767;DHT22;30487;48.716;9.272;2022-07-04T08:53:49;23.40;92.00
44767;DHT22;30487;48.716;9.272;2022-07-04T08:56:19;23.50;92.40
44767;DHT22;30487;48.716;9.272;2022-07-04T08:59:05;23.60;91.70
44767;DHT22;30487;48.716;9.272;2022-07-04T09:01:30;23.70;91.90
44767;DHT22;30487;48.716;9.272;2022-07-04T09:03:56;23.80;91.90
44767;DHT22;30487;48.716;9.272;2022-07-04T09:06:22;23.90;91.50
44767;DHT22;30487;48.716;9.272;2022-07-04T09:08:49;24.00;91.50
44767;DHT22;30487;48.716;9.272;2022-07-04T09:11:14;24.00;91.20
44767;DHT22;30487;48.716;9.272;2022-07-04T09:13:40;24.00;91.30
44767;DHT22;30487;48.716;9.272;2022-07-04T09:16:05;24.10;91.00
44767;DHT22;30487;48.716;9.272;2022-07-04T09:18:35;24.30;90.60
44767;DHT22;30487;48.716;9.272;2022-07-04T09:21:01;24.40;91.00
44767;DHT22;30487;48.716;9.272;2022-07-04T09:26:06;24.50;90.90
44767;DHT22;30487;48.716;9.272;2022-07-04T09:28:32;24.60;90.80
44767;DHT22;30487;48.716;9.272;2022-07-04T09:30:57;25.00;90.00
44767;DHT22;30487;48.716;9.272;2022-07-04T09:33:43;25.20;89.40
44767;DHT22;30487;48.716;9.272;2022-07-04T09:36:12;25.30;89.40
44767;DHT22;30487;48.716;9.272;2022-07-04T09:38:38;25.30;90.00
44767;DHT22;30487;48.716;9.272;2022-07-04T09:41:03;25.30;88.80
44767;DHT22;30487;48.716;9.272;2022-07-04T09:44:04;25.50;87.80
44767;DHT22;30487;48.716;9.272;2022-07-04T09:46:30;25.70;89.00
44767;DHT22;30487;48.716;9.272;2022-07-04T09:48:56;25.90;89.20
44767;DHT22;30487;48.716;9.272;2022-07-04T09:51:34;26.40;86.50
44767;DHT22;30487;48.716;9.272;2022-07-04T09:54:11;26.50;85.30
44767;DHT22;30487;48.716;9.272;2022-07-04T09:56:43;26.70;84.70
44767;DHT22;30487;48.716;9.272;2022-07-04T09:59:09;26.70;84.60
44767;DHT22;30487;48.716;9.272;2022-07-04T10:01:35;26.70;83.20
44767;DHT22;30487;48.716;9.272;2022-07-04T10:04:01;26.40;84.00
44767;DHT22;30487;48.716;9.272;2022-07-04T10:06:31;26.50;86.00
44767;DHT22;30487;48.716;9.272;2022-07-04T10:09:05;26.60;84.10
44767;DHT22;30487;48.716;9.272;2022-07-04T10:11:34;26.70;83.70
44767;DHT22;30487;48.716;9.272;2022-07-04T10:14:00;26.60;84.20
44767;DHT22;30487;48.716;9.272;2022-07-04T10:16:26;26.80;83.10
44767;DHT22;30487;48.716;9.272;2022-07-04T10:18:51;27.00;79.90
44767;DHT22;30487;48.716;9.272;2022-07-04T10:21:19;26.90;81.50
44767;DHT22;30487;48.716;9.272;2022-07-04T10:23:45;26.70;81.60
44767;DHT22;30487;48.716;9.272;2022-07-04T10:26:11;26.50;80.80
44767;DHT22;30487;48.716;9.272;2022-07-04T10:28:37;26.30;81.40
44767;DHT22;30487;48.716;9.272;2022-07-04T10:31:03;26.40;81.40
44767;DHT22;30487;48.716;9.272;2022-07-04T10:33:28;26.30;82.00
44767;DHT22;30487;48.716;9.272;2022-07-04T10:35:56;26.60;81.90
44767;DHT22;30487;48.716;9.272;2022-07-04T10:38:25;27.00;82.60
44767;DHT22;30487;48.716;9.272;2022-07-04T10:40:52;27.40;82.80
44767;DHT22;30487;48.716;9.272;2022-07-04T10:45:57;27.60;77.50
44767;DHT22;30487;48.716;9.272;2022-07-04T10:48:22;27.80;77.00
44767;DHT22;30487;48.716;9.272;2022-07-04T10:51:01;28.00;75.70
44767;DHT22;30487;48.716;9.272;2022-07-04T10:53:30;28.00;75.90
44767;DHT22;30487;48.716;9.272;2022-07-04T10:58:39;28.10;76.00
44767;DHT22;30487;48.716;9.272;2022-07-04T11:01:14;28.30;77.10
44767;DHT22;30487;48.716;9.272;2022-07-04T11:03:53;28.30;75.40
44767;DHT22;30487;48.716;9.272;2022-07-04T11:11:57;28.40;73.30
44767;DHT22;30487;48.716;9.272;2022-07-04T11:16:57;28.60;73.70
44767;DHT22;30487;48.716;9.272;2022-07-04T11:19:23;29.10;73.40
44767;DHT22;30487;48.716;9.272;2022-07-04T11:21:48;29.40;71.30
44767;DHT22;30487;48.716;9.272;2022-07-04T11:24:14;29.70;71.30
44767;DHT22;30487;48.716;9.272;2022-07-04T11:26:39;29.60;71.00
44767;DHT22;30487;48.716;9.272;2022-07-04T11:29:05;29.10;70.00
44767;DHT22;30487;48.716;9.272;2022-07-04T11:31:37;29.20;72.20
44767;DHT22;30487;48.716;9.272;2022-07-04T11:34:03;29.00;70.60
44767;DHT22;30487;48.716;9.272;2022-07-04T11:36:28;29.10;71.10
44767;DHT22;30487;48.716;9.272;2022-07-04T11:41:21;28.60;70.20
44767;DHT22;30487;48.716;9.272;2022-07-04T11:44:05;28.50;72.40
44767;DHT22;30487;48.716;9.272;2022-07-04T11:46:50;28.60;71.20
44767;DHT22;30487;48.716;9.272;2022-07-04T11:49:15;28.80;71.40
44767;DHT22;30487;48.716;9.272;2022-07-04T11:51:46;28.80;70.90
44767;DHT22;30487;48.716;9.272;2022-07-04T11:54:12;29.00;72.10
44767;DHT22;30487;48.716;9.272;2022-07-04T11:56:38;29.20;71.80
44767;DHT22;30487;48.716;9.272;2022-07-04T11:59:10;29.40;70.60
44767;DHT22;30487;48.716;9.272;2022-07-04T12:01:36;29.80;69.00
44767;DHT22;30487;48.716;9.272;2022-07-04T12:04:12;30.30;69.10
44767;DHT22;30487;48.716;9.272;2022-07-04T12:06:37;30.30;68.30
44767;DHT22;30487;48.716;9.272;2022-07-04T12:09:04;30.70;69.40
44767;DHT22;30487;48.716;9.272;2022-07-04T12:14:14;31.10;67.60
44767;DHT22;30487;48.716;9.272;2022-07-04T12:16:39;31.30;66.90
44767;DHT22;30487;48.716;9.272;2022-07-04T12:19:08;31.60;67.50
44767;DHT22;30487;48.716;9.272;2022-07-04T12:21:34;32.10;66.30
44767;DHT22;30487;48.716;9.272;2022-07-04T12:24:00;32.50;65.60
44767;DHT22;30487;48.716;9.272;2022-07-04T12:26:27;32.70;64.70
44767;DHT22;30487;48.716;9.272;2022-07-04T12:28:53;32.30;63.60
44767;DHT22;30487;48.716;9.272;2022-07-04T12:31:19;32.40;62.70
44767;DHT22;30487;48.716;9.272;2022-07-04T12:33:54;32.40;64.30
44767;DHT22;30487;48.716;9.272;2022-07-04T12:36:23;33.00;63.90
44767;DHT22;30487;48.716;9.272;2022-07-04T12:38:48;33.20;63.50
44767;DHT22;30487;48.716;9.272;2022-07-04T12:41:14;33.60;62.60
44767;DHT22;30487;48.716;9.272;2022-07-04T12:46:07;33.60;60.90
44767;DHT22;30487;48.716;9.272;2022-07-04T12:48:33;33.60;61.00
44767;DHT22;30487;48.716;9.272;2022-07-04T12:51:17;33.70;61.50
44767;DHT22;30487;48.716;9.272;2022-07-04T12:53:44;34.00;61.10
44767;DHT22;30487;48.716;9.272;2022-07-04T12:56:10;33.70;61.20
44767;DHT22;30487;48.716;9.272;2022-07-04T12:58:35;34.00;61.10
44767;DHT22;30487;48.716;9.272;2022-07-04T13:01:01;33.80;60.50
44767;DHT22;30487;48.716;9.272;2022-07-04T13:03:27;34.60;60.40
44767;DHT22;30487;48.716;9.272;2022-07-04T13:05:54;34.50;59.30
44767;DHT22;30487;48.716;9.272;2022-07-04T13:08:22;34.90;58.50
44767;DHT22;30487;48.716;9.272;2022-07-04T13:10:47;33.90;57.90
44767;DHT22;30487;48.716;9.272;2022-07-04T13:13:13;33.80;59.20
44767;DHT22;30487;48.716;9.272;2022-07-04T13:15:38;33.60;59.90
44767;DHT22;30487;48.716;9.272;2022-07-04T13:18:04;33.40;59.60
44767;DHT22;30487;48.716;9.272;2022-07-04T13:20:29;32.90;61.00
44767;DHT22;30487;48.716;9.272;2022-07-04T13:22:55;32.10;61.20
44767;DHT22;30487;48.716;9.272;2022-07-04T13:25:20;31.60;61.30
44767;DHT22;30487;48.716;9.272;2022-07-04T13:27:47;31.90;62.20
44767;DHT22;30487;48.716;9.272;2022-07-04T13:30:13;31.90;62.30
44767;DHT22;30487;48.716;9.272;2022-07-04T13:32:38;31.70;61.80
44767;DHT22;30487;48.716;9.272;2022-07-04T13:35:04;31.80;61.70
44767;DHT22;30487;48.716;9.272;2022-07-04T13:37:30;31.30;62.00
44767;DHT22;30487;48.716;9.272;2022-07-04T13:39:55;31.10;62.80
44767;DHT22;30487;48.716;9.272;2022-07-04T13:42:21;30.80;62.30
44767;DHT22;30487;48.716;9.272;2022-07-04T13:45:06;30.60;62.10
44767;DHT22;30487;48.716;9.272;2022-07-04T13:47:31;30.30;61.50
44767;DHT22;30487;48.716;9.272;2022-07-04T13:49:57;30.60;60.10
44767;DHT22;30487;48.716;9.272;2022-07-04T13:52:22;30.40;59.80
44767;DHT22;30487;48.716;9.272;2022-07-04T13:54:48;30.10;61.80
44767;DHT22;30487;48.716;9.272;2022-07-04T13:57:13;30.30;63.60
44767;DHT22;30487;48.716;9.272;2022-07-04T13:59:39;30.40;63.40
44767;DHT22;30487;48.716;9.272;2022-07-04T14:02:05;30.50;63.80
44767;DHT22;30487;48.716;9.272;2022-07-04T14:04:31;30.60;62.40
44767;DHT22;30487;48.716;9.272;2022-07-04T14:06:56;30.50;62.70
44767;DHT22;30487;48.716;9.272;2022-07-04T14:09:22;30.30;61.80
44767;DHT22;30487;48.716;9.272;2022-07-04T14:11:47;30.30;63.20
44767;DHT22;30487;48.716;9.272;2022-07-04T14:14:13;30.30;63.40
44767;DHT22;30487;48.716;9.272;2022-07-04T14:16:38;30.10;64.10
44767;DHT22;30487;48.716;9.272;2022-07-04T14:19:03;30.20;65.00
44767;DHT22;30487;48.716;9.272;2022-07-04T14:21:29;30.20;64.50
44767;DHT22;30487;48.716;9.272;2022-07-04T14:23:54;30.30;64.30
44767;DHT22;30487;48.716;9.272;2022-07-04T14:26:20;30.30;63.00
44767;DHT22;30487;48.716;9.272;2022-07-04T14:28:50;30.40;63.70
44767;DHT22;30487;48.716;9.272;2022-07-04T14:31:15;30.30;63.80
44767;DHT22;30487;48.716;9.272;2022-07-04T14:33:41;30.10;63.10
44767;DHT22;30487;48.716;9.272;2022-07-04T14:36:06;30.00;63.70
44767;DHT22;30487;48.716;9.272;2022-07-04T14:38:32;30.00;64.00
44767;DHT22;30487;48.716;9.272;2022-07-04T14:40:58;30.20;64.90
44767;DHT22;30487;48.716;9.272;2022-07-04T14:43:43;30.20;65.10
44767;DHT22;30487;48.716;9.272;2022-07-04T14:46:09;30.20;64.20
44767;DHT22;30487;48.716;9.272;2022-07-04T14:48:35;30.30;64.60
44767;DHT22;30487;48.716;9.272;2022-07-04T14:51:01;30.30;64.40
44767;DHT22;30487;48.716;9.272;2022-07-04T14:53:26;30.30;64.70
44767;DHT22;30487;48.716;9.272;2022-07-04T14:55:52;30.40;64.10
44767;DHT22;30487;48.716;9.272;2022-07-04T14:58:18;30.30;64.70
44767;DHT22;30487;48.716;9.272;2022-07-04T15:00:44;30.20;64.60
44767;DHT22;30487;48.716;9.272;2022-07-04T15:03:09;30.00;64.40
44767;DHT22;30487;48.716;9.272;2022-07-04T15:05:35;29.80;63.50
44767;DHT22;30487;48.716;9.272;2022-07-04T15:08:00;29.70;64.10
44767;DHT22;30487;48.716;9.272;2022-07-04T15:10:25;29.60;64.50
44767;DHT22;30487;48.716;9.272;2022-07-04T15:12:51;29.40;64.30
44767;DHT22;30487;48.716;9.272;2022-07-04T15:15:16;29.40;64.70
44767;DHT22;30487;48.716;9.272;2022-07-04T15:17:42;29.30;64.90
44767;DHT22;30487;48.716;9.272;2022-07-04T15:20:08;29.20;64.80
44767;DHT22;30487;48.716;9.272;2022-07-04T15:22:52;29.10;65.40
44767;DHT22;30487;48.716;9.272;2022-07-04T15:25:37;29.10;64.60
44767;DHT22;30487;48.716;9.272;2022-07-04T15:28:02;29.10;64.80
44767;DHT22;30487;48.716;9.272;2022-07-04T15:30:28;29.10;65.10
44767;DHT22;30487;48.716;9.272;2022-07-04T15:32:53;29.10;65.10
44767;DHT22;30487;48.716;9.272;2022-07-04T15:35:19;29.00;65.60
44767;DHT22;30487;48.716;9.272;2022-07-04T15:37:44;29.00;65.30
44767;DHT22;30487;48.716;9.272;2022-07-04T15:40:10;28.80;64.90
44767;DHT22;30487;48.716;9.272;2022-07-04T15:42:35;28.60;66.50
44767;DHT22;30487;48.716;9.272;2022-07-04T15:45:01;28.40;67.10
44767;DHT22;30487;48.716;9.272;2022-07-04T15:47:26;28.30;67.30
44767;DHT22;30487;48.716;9.272;2022-07-04T15:49:52;28.30;67.80
44767;DHT22;30487;48.716;9.272;2022-07-04T15:52:17;28.20;67.00